sensor_id;sensor_type;location;lat;lon;timestamp;pressure;altitude;pressure_sealevel;temperature;humidity
15932;BME280;8065;49.520;11.284;2023-08-30T00:01:33;96806.66;;;18.25;85.05
15932;BME280;8065;49.520;11.284;2023-08-30T00:04:02;96808.19;;;18.26;84.79
15932;BME280;8065;49.520;11.284;2023-08-30T00:06:30;96812.81;;;18.32;83.93
15932;BME280;8065;49.520;11.284;2023-08-30T00:08:59;96821.28;;;18.17;84.65
15932;BME280;8065;49.520;11.284;2023-08-30T00:11:30;96813.56;;;18.05;84.55
15932;BME280;8065;49.520;11.284;2023-08-30T00:14:03;96815.84;;;17.81;85.68
15932;BME280;8065;49.520;11.284;2023-08-30T00:16:33;96821.13;;;17.60;86.72
15932;BME280;8065;49.520;11.284;2023-08-30T00:19:01;96823.41;;;17.54;87.10
15932;BME280;8065;49.520;11.284;2023-08-30T00:21:29;96813.44;;;17.55;86.98
15932;BME280;8065;49.520;11.284;2023-08-30T00:23:58;96804.97;;;17.46;87.93
15932;BME280;8065;49.520;11.284;2023-08-30T00:26:26;96815.06;;;17.77;86.07
15932;BME280;8065;49.520;11.284;2023-08-30T00:28:57;96807.00;;;17.84;85.91
15932;BME280;8065;49.520;11.284;2023-08-30T00:31:25;96807.78;;;17.81;86.49
15932;BME280;8065;49.520;11.284;2023-08-30T00:33:53;96801.63;;;17.84;86.10
15932;BME280;8065;49.520;11.284;2023-08-30T00:36:22;96810.47;;;17.85;85.88
15932;BME280;8065;49.520;11.284;2023-08-30T00:38:50;96805.09;;;17.88;85.74
15932;BME280;8065;49.520;11.284;2023-08-30T00:41:18;96802.81;;;18.01;85.23
15932;BME280;8065;49.520;11.284;2023-08-30T00:43:47;96800.50;;;17.99;85.05
15932;BME280;8065;49.520;11.284;2023-08-30T00:46:18;96802.03;;;17.93;85.22
15932;BME280;8065;49.520;11.284;2023-08-30T00:48:47;96802.81;;;17.90;84.95
15932;BME280;8065;49.520;11.284;2023-08-30T00:51:15;96804.34;;;17.95;84.30
15932;BME280;8065;49.520;11.284;2023-08-30T00:53:44;96797.44;;;17.97;84.39
15932;BME280;8065;49.520;11.284;2023-08-30T00:56:12;96794.34;;;17.92;84.28
15932;BME280;8065;49.520;11.284;2023-08-30T00:58:40;96795.13;;;17.85;84.57
15932;BME280;8065;49.520;11.284;2023-08-30T01:01:09;96807.41;;;17.83;84.49
15932;BME280;8065;49.520;11.284;2023-08-30T01:03:41;96810.44;;;17.71;84.85
15932;BME280;8065;49.520;11.284;2023-08-30T01:06:10;96807.63;;;17.31;86.37
15932;BME280;8065;49.520;11.284;2023-08-30T01:08:39;96818.69;;;17.19;86.56
15932;BME280;8065;49.520;11.284;2023-08-30T01:11:12;96814.78;;;17.06;87.07
15932;BME280;8065;49.520;11.284;2023-08-30T01:13:45;96818.25;;;17.10;87.08
15932;BME280;8065;49.520;11.284;2023-08-30T01:16:17;96812.13;;;17.10;87.38
15932;BME280;8065;49.520;11.284;2023-08-30T01:18:53;96808.66;;;17.06;87.77
15932;BME280;8065;49.520;11.284;2023-08-30T01:21:29;96815.63;;;17.17;87.39
15932;BME280;8065;49.520;11.284;2023-08-30T01:23:59;96811.75;;;17.15;87.68
15932;BME280;8065;49.520;11.284;2023-08-30T01:26:38;96807.19;;;17.22;87.46
15932;BME280;8065;49.520;11.284;2023-08-30T01:29:13;96810.28;;;17.24;86.85
15932;BME280;8065;49.520;11.284;2023-08-30T01:31:45;96814.91;;;17.34;86.60
15932;BME280;8065;49.520;11.284;2023-08-30T01:34:16;96810.31;;;17.38;86.25
15932;BME280;8065;49.520;11.284;2023-08-30T01:36:45;96810.34;;;17.49;86.13
15932;BME280;8065;49.520;11.284;2023-08-30T01:39:14;96811.09;;;17.43;86.45
15932;BME280;8065;49.520;11.284;2023-08-30T01:41:43;96805.69;;;17.39;86.31
15932;BME280;8065;49.520;11.284;2023-08-30T01:44:15;96809.16;;;17.29;86.89
15932;BME280;8065;49.520;11.284;2023-08-30T01:46:46;96822.53;;;17.18;88.01
15932;BME280;8065;49.520;11.284;2023-08-30T01:49:14;96817.13;;;17.11;88.50
15932;BME280;8065;49.520;11.284;2023-08-30T01:51:43;96813.28;;;17.12;88.28
15932;BME280;8065;49.520;11.284;2023-08-30T01:54:17;96811.75;;;17.11;88.41
15932;BME280;8065;49.520;11.284;2023-08-30T01:56:46;96817.13;;;17.11;88.89
15932;BME280;8065;49.520;11.284;2023-08-30T01:59:17;96811.78;;;17.18;88.56
15932;BME280;8065;49.520;11.284;2023-08-30T02:01:45;96813.34;;;17.26;88.23
15932;BME280;8065;49.520;11.284;2023-08-30T02:04:14;96824.88;;;17.37;87.48
15932;BME280;8065;49.520;11.284;2023-08-30T02:06:46;96816.06;;;17.41;87.06
15932;BME280;8065;49.520;11.284;2023-08-30T02:09:19;96817.25;;;17.47;87.02
15932;BME280;8065;49.520;11.284;2023-08-30T02:11:50;96804.19;;;17.42;86.86
15932;BME280;8065;49.520;11.284;2023-08-30T02:14:24;96814.91;;;17.42;86.70
15932;BME280;8065;49.520;11.284;2023-08-30T02:16:55;96808.03;;;17.48;86.49
15932;BME280;8065;49.520;11.284;2023-08-30T02:19:24;96810.38;;;17.56;86.48
15932;BME280;8065;49.520;11.284;2023-08-30T02:21:52;96808.00;;;17.41;86.97
15932;BME280;8065;49.520;11.284;2023-08-30T02:24:20;96811.44;;;17.37;86.89
15932;BME280;8065;49.520;11.284;2023-08-30T02:26:49;96816.38;;;17.14;88.28
15932;BME280;8065;49.520;11.284;2023-08-30T02:29:17;96810.22;;;17.14;88.47
15932;BME280;8065;49.520;11.284;2023-08-30T02:31:48;96807.91;;;17.12;89.24
15932;BME280;8065;49.520;11.284;2023-08-30T02:34:16;96812.16;;;17.17;89.10
15932;BME280;8065;49.520;11.284;2023-08-30T02:36:45;96817.19;;;17.29;88.10
15932;BME280;8065;49.520;11.284;2023-08-30T02:39:14;96799.94;;;17.33;88.29
15932;BME280;8065;49.520;11.284;2023-08-30T02:41:42;96793.44;;;17.42;88.56
15932;BME280;8065;49.520;11.284;2023-08-30T02:44:11;96791.13;;;17.44;88.29
15932;BME280;8065;49.520;11.284;2023-08-30T02:46:39;96792.31;;;17.50;87.93
15932;BME280;8065;49.520;11.284;2023-08-30T02:49:10;96802.69;;;17.51;87.71
15932;BME280;8065;49.520;11.284;2023-08-30T02:51:36;96804.97;;;17.53;87.30
15932;BME280;8065;49.520;11.284;2023-08-30T02:54:05;96804.56;;;17.44;88.11
15932;BME280;8065;49.520;11.284;2023-08-30T02:56:31;96808.81;;;17.48;87.97
15932;BME280;8065;49.520;11.284;2023-08-30T02:59:00;96812.66;;;17.51;87.62
15932;BME280;8065;49.520;11.284;2023-08-30T03:01:28;96801.53;;;17.52;88.26
15932;BME280;8065;49.520;11.284;2023-08-30T03:03:56;96800.75;;;17.52;88.14
15932;BME280;8065;49.520;11.284;2023-08-30T03:06:27;96807.25;;;17.47;88.57
15932;BME280;8065;49.520;11.284;2023-08-30T03:08:55;96806.16;;;17.55;88.12
15932;BME280;8065;49.520;11.284;2023-08-30T03:11:24;96808.03;;;17.48;88.23
15932;BME280;8065;49.520;11.284;2023-08-30T03:13:53;96794.22;;;17.46;88.68
15932;BME280;8065;49.520;11.284;2023-08-30T03:16:22;96807.22;;;17.29;89.60
15932;BME280;8065;49.520;11.284;2023-08-30T03:18:50;96804.91;;;17.24;90.20
15932;BME280;8065;49.520;11.284;2023-08-30T03:21:19;96798.78;;;17.31;89.78
15932;BME280;8065;49.520;11.284;2023-08-30T03:23:50;96802.63;;;17.33;89.94
15932;BME280;8065;49.520;11.284;2023-08-30T03:26:18;96806.06;;;17.34;90.16
15932;BME280;8065;49.520;11.284;2023-08-30T03:28:46;96812.59;;;17.29;90.24
15932;BME280;8065;49.520;11.284;2023-08-30T03:31:16;96815.28;;;17.29;89.72
15932;BME280;8065;49.520;11.284;2023-08-30T03:33:44;96803.03;;;17.32;89.47
15932;BME280;8065;49.520;11.284;2023-08-30T03:36:14;96806.47;;;17.40;89.71
15932;BME280;8065;49.520;11.284;2023-08-30T03:38:43;96809.06;;;17.11;90.91
15932;BME280;8065;49.520;11.284;2023-08-30T03:41:14;96807.13;;;17.08;90.32
15932;BME280;8065;49.520;11.284;2023-08-30T03:43:42;96804.44;;;17.08;90.43
15932;BME280;8065;49.520;11.284;2023-08-30T03:46:11;96802.56;;;17.16;90.29
15932;BME280;8065;49.520;11.284;2023-08-30T03:48:39;96807.94;;;17.19;90.52
15932;BME280;8065;49.520;11.284;2023-08-30T03:51:07;96807.59;;;17.24;90.29
15932;BME280;8065;49.520;11.284;2023-08-30T03:53:36;96806.47;;;17.32;89.91
15932;BME280;8065;49.520;11.284;2023-08-30T03:56:04;96808.75;;;17.23;89.95
15932;BME280;8065;49.520;11.284;2023-08-30T03:58:35;96810.25;;;17.21;90.31
15932;BME280;8065;49.520;11.284;2023-08-30T04:01:03;96805.69;;;17.28;90.25
15932;BME280;8065;49.520;11.284;2023-08-30T04:03:32;96801.09;;;17.40;89.83
15932;BME280;8065;49.520;11.284;2023-08-30T04:06:00;96798.81;;;17.42;89.83
15932;BME280;8065;49.520;11.284;2023-08-30T04:08:28;96801.84;;;17.36;89.95
15932;BME280;8065;49.520;11.284;2023-08-30T04:10:57;96810.31;;;17.42;89.83
15932;BME280;8065;49.520;11.284;2023-08-30T04:13:25;96812.66;;;17.51;89.42
15932;BME280;8065;49.520;11.284;2023-08-30T04:15:56;96814.91;;;17.42;89.68
15932;BME280;8065;49.520;11.284;2023-08-30T04:18:24;96829.50;;;17.41;90.18
15932;BME280;8065;49.520;11.284;2023-08-30T04:20:53;96834.88;;;17.41;90.04
15932;BME280;8065;49.520;11.284;2023-08-30T04:23:21;96830.28;;;17.41;90.28
15932;BME280;8065;49.520;11.284;2023-08-30T04:25:49;96828.75;;;17.47;89.60
15932;BME280;8065;49.520;11.284;2023-08-30T04:28:17;96824.19;;;17.55;89.46
15932;BME280;8065;49.520;11.284;2023-08-30T04:30:46;96823.78;;;17.49;89.86
15932;BME280;8065;49.520;11.284;2023-08-30T04:33:16;96815.34;;;17.54;89.61
15932;BME280;8065;49.520;11.284;2023-08-30T04:35:50;96816.19;;;17.65;89.29
15932;BME280;8065;49.520;11.284;2023-08-30T04:38:18;96823.44;;;17.65;89.11
15932;BME280;8065;49.520;11.284;2023-08-30T04:40:46;96820.34;;;17.56;90.17
15932;BME280;8065;49.520;11.284;2023-08-30T04:43:15;96821.91;;;17.64;89.61
15932;BME280;8065;49.520;11.284;2023-08-30T04:45:43;96821.19;;;17.67;89.73
15932;BME280;8065;49.520;11.284;2023-08-30T04:48:17;96820.81;;;17.79;89.25
15932;BME280;8065;49.520;11.284;2023-08-30T04:50:46;96825.81;;;17.77;88.94
15932;BME280;8065;49.520;11.284;2023-08-30T04:53:14;96821.22;;;17.78;89.43
15932;BME280;8065;49.520;11.284;2023-08-30T04:55:42;96824.25;;;17.69;89.44
15932;BME280;8065;49.520;11.284;2023-08-30T04:58:10;96822.72;;;17.68;89.08
15932;BME280;8065;49.520;11.284;2023-08-30T05:00:39;96815.03;;;17.70;89.14
15932;BME280;8065;49.520;11.284;2023-08-30T05:03:07;96813.13;;;17.74;89.52
15932;BME280;8065;49.520;11.284;2023-08-30T05:05:38;96817.38;;;17.75;89.05
15932;BME280;8065;49.520;11.284;2023-08-30T05:08:06;96814.69;;;17.82;88.68
15932;BME280;8065;49.520;11.284;2023-08-30T05:10:34;96808.16;;;17.83;88.63
15932;BME280;8065;49.520;11.284;2023-08-30T05:13:03;96813.16;;;17.81;88.55
15932;BME280;8065;49.520;11.284;2023-08-30T05:15:31;96815.44;;;17.79;88.42
15932;BME280;8065;49.520;11.284;2023-08-30T05:17:59;96804.31;;;17.74;88.79
15932;BME280;8065;49.520;11.284;2023-08-30T05:20:28;96820.06;;;17.79;88.15
15932;BME280;8065;49.520;11.284;2023-08-30T05:22:59;96808.53;;;17.78;88.13
15932;BME280;8065;49.520;11.284;2023-08-30T05:25:27;96815.41;;;17.68;88.61
15932;BME280;8065;49.520;11.284;2023-08-30T05:27:56;96815.81;;;17.67;88.88
15932;BME280;8065;49.520;11.284;2023-08-30T05:30:24;96808.88;;;17.66;88.72
15932;BME280;8065;49.520;11.284;2023-08-30T05:32:52;96805.75;;;17.57;88.60
15932;BME280;8065;49.520;11.284;2023-08-30T05:35:21;96812.63;;;17.44;88.11
15932;BME280;8065;49.520;11.284;2023-08-30T05:37:49;96800.38;;;17.50;88.70
15932;BME280;8065;49.520;11.284;2023-08-30T05:40:20;96803.06;;;17.57;88.33
15932;BME280;8065;49.520;11.284;2023-08-30T05:42:48;96807.31;;;17.65;88.28
15932;BME280;8065;49.520;11.284;2023-08-30T05:45:17;96804.63;;;17.65;88.45
15932;BME280;8065;49.520;11.284;2023-08-30T05:47:45;96803.94;;;17.82;87.61
15932;BME280;8065;49.520;11.284;2023-08-30T05:50:13;96795.50;;;17.87;86.98
15932;BME280;8065;49.520;11.284;2023-08-30T05:52:41;96799.34;;;17.83;87.26
15932;BME280;8065;49.520;11.284;2023-08-30T05:55:10;96798.19;;;17.94;86.88
15932;BME280;8065;49.520;11.284;2023-08-30T05:57:41;96797.44;;;17.97;86.58
15932;BME280;8065;49.520;11.284;2023-08-30T06:00:10;96797.44;;;18.01;86.54
15932;BME280;8065;49.520;11.284;2023-08-30T06:02:39;96809.72;;;17.98;86.41
15932;BME280;8065;49.520;11.284;2023-08-30T06:05:09;96814.72;;;18.04;86.48
15932;BME280;8065;49.520;11.284;2023-08-30T06:07:37;96813.19;;;18.02;86.54
15932;BME280;8065;49.520;11.284;2023-08-30T06:10:06;96812.81;;;18.08;86.31
15932;BME280;8065;49.520;11.284;2023-08-30T06:12:35;96809.75;;;18.13;86.52
15932;BME280;8065;49.520;11.284;2023-08-30T06:15:07;96815.13;;;18.13;86.38
15932;BME280;8065;49.520;11.284;2023-08-30T06:17:35;96810.50;;;17.99;86.60
15932;BME280;8065;49.520;11.284;2023-08-30T06:20:05;96820.47;;;17.98;86.59
15932;BME280;8065;49.520;11.284;2023-08-30T06:22:34;96817.41;;;18.04;86.76
15932;BME280;8065;49.520;11.284;2023-08-30T06:25:03;96817.78;;;18.02;86.83
15932;BME280;8065;49.520;11.284;2023-08-30T06:27:32;96815.88;;;18.02;86.73
15932;BME280;8065;49.520;11.284;2023-08-30T06:30:00;96821.63;;;17.97;86.43
15932;BME280;8065;49.520;11.284;2023-08-30T06:32:31;96823.91;;;17.88;86.89
15932;BME280;8065;49.520;11.284;2023-08-30T06:34:59;96818.16;;;17.93;87.02
15932;BME280;8065;49.520;11.284;2023-08-30T06:37:29;96826.63;;;17.95;86.59
15932;BME280;8065;49.520;11.284;2023-08-30T06:39:57;96823.56;;;17.97;86.83
15932;BME280;8065;49.520;11.284;2023-08-30T06:42:25;96823.16;;;17.98;87.06
15932;BME280;8065;49.520;11.284;2023-08-30T06:44:54;96817.41;;;18.04;86.32
15932;BME280;8065;49.520;11.284;2023-08-30T06:47:22;96820.47;;;17.98;86.56
15932;BME280;8065;49.520;11.284;2023-08-30T06:49:53;96815.09;;;17.95;86.48
15932;BME280;8065;49.520;11.284;2023-08-30T06:52:21;96811.25;;;17.99;86.42
15932;BME280;8065;49.520;11.284;2023-08-30T06:54:50;96820.09;;;18.04;86.82
15932;BME280;8065;49.520;11.284;2023-08-30T06:57:18;96814.75;;;18.18;86.43
15932;BME280;8065;49.520;11.284;2023-08-30T06:59:47;96815.88;;;18.13;86.52
15932;BME280;8065;49.520;11.284;2023-08-30T07:02:15;96819.31;;;18.21;86.43
15932;BME280;8065;49.520;11.284;2023-08-30T07:04:43;96814.38;;;18.19;86.36
15932;BME280;8065;49.520;11.284;2023-08-30T07:07:14;96803.97;;;18.18;86.47
15932;BME280;8065;49.520;11.284;2023-08-30T07:09:42;96798.97;;;18.27;85.71
15932;BME280;8065;49.520;11.284;2023-08-30T07:12:11;96809.34;;;18.32;85.72
15932;BME280;8065;49.520;11.284;2023-08-30T07:14:39;96816.25;;;18.29;85.89
15932;BME280;8065;49.520;11.284;2023-08-30T07:17:07;96799.72;;;18.31;86.17
15932;BME280;8065;49.520;11.284;2023-08-30T07:19:35;96797.81;;;18.35;85.22
15932;BME280;8065;49.520;11.284;2023-08-30T07:22:04;96808.97;;;18.30;85.92
15932;BME280;8065;49.520;11.284;2023-08-30T07:24:34;96798.19;;;18.37;85.49
15932;BME280;8065;49.520;11.284;2023-08-30T07:27:03;96798.97;;;18.45;85.08
15932;BME280;8065;49.520;11.284;2023-08-30T07:29:32;96805.09;;;18.52;84.93
15932;BME280;8065;49.520;11.284;2023-08-30T07:32:01;96807.41;;;18.50;84.90
15932;BME280;8065;49.520;11.284;2023-08-30T07:34:29;96804.34;;;18.41;85.55
15932;BME280;8065;49.520;11.284;2023-08-30T07:36:57;96810.50;;;18.49;85.25
15932;BME280;8065;49.520;11.284;2023-08-30T07:39:26;96808.97;;;18.41;84.96
15932;BME280;8065;49.520;11.284;2023-08-30T07:41:57;96808.22;;;18.61;84.71
15932;BME280;8065;49.520;11.284;2023-08-30T07:44:25;96812.03;;;18.75;84.10
15932;BME280;8065;49.520;11.284;2023-08-30T07:46:53;96805.88;;;18.81;84.06
15932;BME280;8065;49.520;11.284;2023-08-30T07:49:21;96811.63;;;18.94;83.73
15932;BME280;8065;49.520;11.284;2023-08-30T07:51:50;96818.53;;;19.02;83.04
15932;BME280;8065;49.520;11.284;2023-08-30T07:54:18;96811.97;;;19.03;83.13
15932;BME280;8065;49.520;11.284;2023-08-30T07:56:47;96818.09;;;19.07;83.09
15932;BME280;8065;49.520;11.284;2023-08-30T07:59:18;96816.59;;;19.06;83.00
15932;BME280;8065;49.520;11.284;2023-08-30T08:01:46;96812.28;;;19.16;82.47
15932;BME280;8065;49.520;11.284;2023-08-30T08:04:14;96815.75;;;19.13;81.56
15932;BME280;8065;49.520;11.284;2023-08-30T08:06:43;96820.75;;;19.14;82.49
15932;BME280;8065;49.520;11.284;2023-08-30T08:09:11;96818.03;;;19.25;81.92
15932;BME280;8065;49.520;11.284;2023-08-30T08:11:40;96814.13;;;19.44;80.88
15932;BME280;8065;49.520;11.284;2023-08-30T08:14:09;96812.16;;;19.55;80.79
15932;BME280;8065;49.520;11.284;2023-08-30T08:16:40;96812.50;;;19.64;80.52
15932;BME280;8065;49.520;11.284;2023-08-30T08:19:09;96811.34;;;19.65;80.61
15932;BME280;8065;49.520;11.284;2023-08-30T08:21:38;96807.94;;;19.47;79.17
15932;BME280;8065;49.520;11.284;2023-08-30T08:24:06;96806.28;;;19.74;79.76
15932;BME280;8065;49.520;11.284;2023-08-30T08:26:35;96810.81;;;19.91;79.06
15932;BME280;8065;49.520;11.284;2023-08-30T08:29:03;96812.03;;;19.83;78.84
15932;BME280;8065;49.520;11.284;2023-08-30T08:31:31;96812.81;;;19.80;78.87
15932;BME280;8065;49.520;11.284;2023-08-30T08:34:10;96812.03;;;19.83;79.21
15932;BME280;8065;49.520;11.284;2023-08-30T08:36:40;96812.84;;;19.77;79.24
15932;BME280;8065;49.520;11.284;2023-08-30T08:39:09;96813.13;;;19.89;79.19
15932;BME280;8065;49.520;11.284;2023-08-30T08:41:40;96808.47;;;19.93;79.18
15932;BME280;8065;49.520;11.284;2023-08-30T08:44:10;96803.03;;;20.01;78.33
15932;BME280;8065;49.520;11.284;2023-08-30T08:46:39;96804.47;;;20.16;78.58
15932;BME280;8065;49.520;11.284;2023-08-30T08:49:11;96796.63;;;20.32;78.41
15932;BME280;8065;49.520;11.284;2023-08-30T08:51:41;96795.81;;;20.42;77.15
15932;BME280;8065;49.520;11.284;2023-08-30T08:54:11;96800.16;;;20.74;77.11
15932;BME280;8065;49.520;11.284;2023-08-30T08:56:40;96794.56;;;20.88;75.88
15932;BME280;8065;49.520;11.284;2023-08-30T08:59:08;96801.81;;;20.60;75.13
15932;BME280;8065;49.520;11.284;2023-08-30T09:01:39;96802.91;;;20.67;74.99
15932;BME280;8065;49.520;11.284;2023-08-30T09:04:12;96796.69;;;20.25;75.66
15932;BME280;8065;49.520;11.284;2023-08-30T09:06:40;96811.19;;;20.45;75.63
15932;BME280;8065;49.520;11.284;2023-08-30T09:09:09;96800.22;;;20.67;75.72
15932;BME280;8065;49.520;11.284;2023-08-30T09:11:37;96805.31;;;20.95;74.84
15932;BME280;8065;49.520;11.284;2023-08-30T09:14:05;96804.13;;;20.96;75.08
15932;BME280;8065;49.520;11.284;2023-08-30T09:16:34;96808.94;;;21.15;74.44
15932;BME280;8065;49.520;11.284;2023-08-30T09:19:03;96803.03;;;20.90;73.80
15932;BME280;8065;49.520;11.284;2023-08-30T09:21:35;96808.91;;;21.19;73.41
15932;BME280;8065;49.520;11.284;2023-08-30T09:24:05;96803.56;;;21.76;73.76
15932;BME280;8065;49.520;11.284;2023-08-30T09:26:34;96791.25;;;21.72;71.66
15932;BME280;8065;49.520;11.284;2023-08-30T09:29:04;96785.31;;;22.11;70.41
15932;BME280;8065;49.520;11.284;2023-08-30T09:31:34;96778.28;;;22.40;69.72
15932;BME280;8065;49.520;11.284;2023-08-30T09:34:03;96784.41;;;22.87;69.01
15932;BME280;8065;49.520;11.284;2023-08-30T09:36:37;96781.94;;;23.16;67.71
15932;BME280;8065;49.520;11.284;2023-08-30T09:39:08;96783.75;;;23.59;67.88
15932;BME280;8065;49.520;11.284;2023-08-30T09:41:36;96776.94;;;23.71;66.60
15932;BME280;8065;49.520;11.284;2023-08-30T09:44:09;96778.19;;;23.46;65.57
15932;BME280;8065;49.520;11.284;2023-08-30T09:46:42;96778.88;;;23.50;67.53
15932;BME280;8065;49.520;11.284;2023-08-30T09:49:11;96780.13;;;23.66;67.51
15932;BME280;8065;49.520;11.284;2023-08-30T09:51:43;96766.69;;;23.78;65.68
15932;BME280;8065;49.520;11.284;2023-08-30T09:54:15;96771.63;;;24.00;64.93
15932;BME280;8065;49.520;11.284;2023-08-30T09:56:44;96770.09;;;23.99;63.95
15932;BME280;8065;49.520;11.284;2023-08-30T09:59:13;96762.06;;;23.59;64.64
15932;BME280;8065;49.520;11.284;2023-08-30T10:01:43;96761.72;;;23.57;65.17
15932;BME280;8065;49.520;11.284;2023-08-30T10:04:11;96764.00;;;23.59;64.77
15932;BME280;8065;49.520;11.284;2023-08-30T10:06:42;96756.09;;;24.00;64.73
15932;BME280;8065;49.520;11.284;2023-08-30T10:09:11;96758.06;;;24.16;62.58
15932;BME280;8065;49.520;11.284;2023-08-30T10:11:40;96756.75;;;23.88;64.20
15932;BME280;8065;49.520;11.284;2023-08-30T10:14:08;96759.19;;;23.66;63.18
15932;BME280;8065;49.520;11.284;2023-08-30T10:16:41;96755.13;;;23.74;64.52
15932;BME280;8065;49.520;11.284;2023-08-30T10:19:13;96757.66;;;23.65;63.89
15932;BME280;8065;49.520;11.284;2023-08-30T10:21:47;96742.06;;;23.69;64.26
15932;BME280;8065;49.520;11.284;2023-08-30T10:24:19;96746.66;;;23.72;64.85
15932;BME280;8065;49.520;11.284;2023-08-30T10:26:49;96741.72;;;23.67;64.96
15932;BME280;8065;49.520;11.284;2023-08-30T10:29:18;96740.13;;;23.70;64.33
15932;BME280;8065;49.520;11.284;2023-08-30T10:31:48;96739.91;;;23.97;64.31
15932;BME280;8065;49.520;11.284;2023-08-30T10:34:17;96739.47;;;23.82;64.07
15932;BME280;8065;49.520;11.284;2023-08-30T10:36:59;96742.44;;;23.88;64.60
15932;BME280;8065;49.520;11.284;2023-08-30T10:39:33;96745.81;;;23.75;64.21
15932;BME280;8065;49.520;11.284;2023-08-30T10:42:08;96744.78;;;23.69;63.71
15932;BME280;8065;49.520;11.284;2023-08-30T10:44:47;96737.00;;;23.88;64.09
15932;BME280;8065;49.520;11.284;2023-08-30T10:47:19;96741.09;;;24.12;62.97
15932;BME280;8065;49.520;11.284;2023-08-30T10:49:47;96731.66;;;24.33;63.05
15932;BME280;8065;49.520;11.284;2023-08-30T10:52:19;96730.38;;;24.21;62.17
15932;BME280;8065;49.520;11.284;2023-08-30T10:54:47;96725.31;;;23.91;62.55
15932;BME280;8065;49.520;11.284;2023-08-30T10:57:20;96734.63;;;23.90;62.82
15932;BME280;8065;49.520;11.284;2023-08-30T11:00:04;96732.19;;;23.95;61.85
15932;BME280;8065;49.520;11.284;2023-08-30T11:02:33;96734.63;;;24.22;62.06
15932;BME280;8065;49.520;11.284;2023-08-30T11:05:03;96734.28;;;24.36;59.96
15932;BME280;8065;49.520;11.284;2023-08-30T11:07:34;96733.72;;;24.58;59.48
15932;BME280;8065;49.520;11.284;2023-08-30T11:10:04;96727.75;;;24.34;56.44
15932;BME280;8065;49.520;11.284;2023-08-30T11:12:34;96737.53;;;23.99;57.00
15932;BME280;8065;49.520;11.284;2023-08-30T11:15:03;96727.09;;;24.13;58.57
15932;BME280;8065;49.520;11.284;2023-08-30T11:17:31;96740.41;;;24.08;59.29
15932;BME280;8065;49.520;11.284;2023-08-30T11:20:06;96728.53;;;24.18;59.56
15932;BME280;8065;49.520;11.284;2023-08-30T11:22:40;96726.97;;;24.49;57.94
15932;BME280;8065;49.520;11.284;2023-08-30T11:25:11;96727.06;;;24.75;56.20
15932;BME280;8065;49.520;11.284;2023-08-30T11:27:39;96725.44;;;25.06;56.63
15932;BME280;8065;49.520;11.284;2023-08-30T11:30:10;96717.53;;;25.12;57.98
15932;BME280;8065;49.520;11.284;2023-08-30T11:32:39;96714.78;;;25.25;56.02
15932;BME280;8065;49.520;11.284;2023-08-30T11:35:08;96713.94;;;25.28;56.54
15932;BME280;8065;49.520;11.284;2023-08-30T11:37:39;96712.53;;;25.36;56.90
15932;BME280;8065;49.520;11.284;2023-08-30T11:40:11;96716.78;;;25.37;54.28
15932;BME280;8065;49.520;11.284;2023-08-30T11:42:39;96711.09;;;25.31;53.91
15932;BME280;8065;49.520;11.284;2023-08-30T11:45:08;96710.34;;;25.43;54.88
15932;BME280;8065;49.520;11.284;2023-08-30T11:47:37;96717.44;;;25.54;54.26
15932;BME280;8065;49.520;11.284;2023-08-30T11:50:07;96713.75;;;25.86;54.32
15932;BME280;8065;49.520;11.284;2023-08-30T11:52:40;96719.16;;;25.35;53.49
15932;BME280;8065;49.520;11.284;2023-08-30T11:55:09;96709.25;;;25.03;54.93
15932;BME280;8065;49.520;11.284;2023-08-30T11:57:38;96709.69;;;24.85;55.11
15932;BME280;8065;49.520;11.284;2023-08-30T12:00:08;96710.78;;;24.88;56.40
15932;BME280;8065;49.520;11.284;2023-08-30T12:02:37;96704.41;;;24.94;56.14
15932;BME280;8065;49.520;11.284;2023-08-30T12:05:10;96707.41;;;25.12;56.50
15932;BME280;8065;49.520;11.284;2023-08-30T12:07:41;96705.41;;;25.00;56.88
15932;BME280;8065;49.520;11.284;2023-08-30T12:10:11;96705.31;;;25.04;56.22
15932;BME280;8065;49.520;11.284;2023-08-30T12:12:44;96700.16;;;24.93;55.54
15932;BME280;8065;49.520;11.284;2023-08-30T12:15:14;96697.38;;;24.97;55.39
15932;BME280;8065;49.520;11.284;2023-08-30T12:17:43;96703.41;;;24.88;55.97
15932;BME280;8065;49.520;11.284;2023-08-30T12:20:15;96705.88;;;24.82;55.43
15932;BME280;8065;49.520;11.284;2023-08-30T12:22:48;96697.41;;;24.80;56.52
15932;BME280;8065;49.520;11.284;2023-08-30T12:25:17;96700.84;;;24.68;56.65
15932;BME280;8065;49.520;11.284;2023-08-30T12:27:46;96703.66;;;24.65;54.08
15932;BME280;8065;49.520;11.284;2023-08-30T12:30:15;96709.75;;;24.69;54.96
15932;BME280;8065;49.520;11.284;2023-08-30T12:32:45;96702.94;;;24.48;55.08
15932;BME280;8065;49.520;11.284;2023-08-30T12:35:13;96706.41;;;24.48;56.87
15932;BME280;8065;49.520;11.284;2023-08-30T12:37:42;96698.34;;;24.45;56.99
15932;BME280;8065;49.520;11.284;2023-08-30T12:40:13;96699.34;;;24.51;57.28
15932;BME280;8065;49.520;11.284;2023-08-30T12:42:41;96702.16;;;24.47;57.51
15932;BME280;8065;49.520;11.284;2023-08-30T12:45:10;96704.06;;;24.34;58.89
15932;BME280;8065;49.520;11.284;2023-08-30T12:47:38;96698.31;;;24.16;59.20
15932;BME280;8065;49.520;11.284;2023-08-30T12:50:07;96698.13;;;24.23;58.50
15932;BME280;8065;49.520;11.284;2023-08-30T12:52:38;96698.47;;;24.25;58.34
15932;BME280;8065;49.520;11.284;2023-08-30T12:55:07;96702.75;;;24.26;59.21
15932;BME280;8065;49.520;11.284;2023-08-30T12:57:38;96698.13;;;24.23;59.24
15932;BME280;8065;49.520;11.284;2023-08-30T13:00:07;96695.19;;;24.17;59.42
15932;BME280;8065;49.520;11.284;2023-08-30T13:02:36;96692.31;;;24.08;59.11
15932;BME280;8065;49.520;11.284;2023-08-30T13:05:05;96695.25;;;24.14;59.49
15932;BME280;8065;49.520;11.284;2023-08-30T13:07:33;96694.44;;;24.01;59.33
15932;BME280;8065;49.520;11.284;2023-08-30T13:10:01;96687.91;;;23.98;59.96
15932;BME280;8065;49.520;11.284;2023-08-30T13:12:29;96692.06;;;23.86;61.30